sensor_id;sensor_type;location;lat;lon;timestamp;temperature;humidity
16879;DHT22;8556;52.218;9.884;2023-08-31T00:01:59;12.90;99.90
16879;DHT22;8556;52.218;9.884;2023-08-31T00:04:26;12.90;99.90
16879;DHT22;8556;52.218;9.884;2023-08-31T00:06:52;12.90;99.90
16879;DHT22;8556;52.218;9.884;2023-08-31T00:09:19;12.80;99.90
16879;DHT22;8556;52.218;9.884;2023-08-31T00:11:46;12.90;99.90
16879;DHT22;8556;52.218;9.884;2023-08-31T00:14:13;12.90;99.90
16879;DHT22;8556;52.218;9.884;2023-08-31T00:16:41;12.90;99.90
16879;DHT22;8556;52.218;9.884;2023-08-31T00:19:08;13.00;99.90
16879;DHT22;8556;52.218;9.884;2023-08-31T00:21:35;12.90;99.90
16879;DHT22;8556;52.218;9.884;2023-08-31T00:24:02;12.80;99.90
16879;DHT22;8556;52.218;9.884;2023-08-31T00:26:29;12.90;99.90
16879;DHT22;8556;52.218;9.884;2023-08-31T00:28:56;12.80;99.90
16879;DHT22;8556;52.218;9.884;2023-08-31T00:31:23;12.90;99.90
16879;DHT22;8556;52.218;9.884;2023-08-31T00:33:52;12.70;99.90
16879;DHT22;8556;52.218;9.884;2023-08-31T00:36:19;12.70;99.90
16879;DHT22;8556;52.218;9.884;2023-08-31T00:38:46;12.70;99.90
16879;DHT22;8556;52.218;9.884;2023-08-31T00:41:13;12.80;99.90
16879;DHT22;8556;52.218;9.884;2023-08-31T00:43:40;12.70;99.90
16879;DHT22;8556;52.218;9.884;2023-08-31T00:46:07;12.70;99.90
16879;DHT22;8556;52.218;9.884;2023-08-31T00:48:34;12.60;99.90
16879;DHT22;8556;52.218;9.884;2023-08-31T00:51:03;12.60;99.90
16879;DHT22;8556;52.218;9.884;2023-08-31T00:53:32;12.70;99.90
16879;DHT22;8556;52.218;9.884;2023-08-31T00:55:59;12.70;99.90
16879;DHT22;8556;52.218;9.884;2023-08-31T00:58:25;12.80;99.90
16879;DHT22;8556;52.218;9.884;2023-08-31T01:01:00;12.70;99.90
16879;DHT22;8556;52.218;9.884;2023-08-31T01:03:35;12.70;99.90
16879;DHT22;8556;52.218;9.884;2023-08-31T01:06:09;12.60;99.90
16879;DHT22;8556;52.218;9.884;2023-08-31T01:08:47;12.40;99.90
16879;DHT22;8556;52.218;9.884;2023-08-31T01:11:21;12.50;99.90
16879;DHT22;8556;52.218;9.884;2023-08-31T01:13:51;12.40;99.90
16879;DHT22;8556;52.218;9.884;2023-08-31T01:16:21;12.40;99.90
16879;DHT22;8556;52.218;9.884;2023-08-31T01:18:50;12.30;99.90
16879;DHT22;8556;52.218;9.884;2023-08-31T01:21:24;12.30;99.90
16879;DHT22;8556;52.218;9.884;2023-08-31T01:23:54;12.20;99.90
16879;DHT22;8556;52.218;9.884;2023-08-31T01:26:21;12.30;99.90
16879;DHT22;8556;52.218;9.884;2023-08-31T01:28:49;12.30;99.90
16879;DHT22;8556;52.218;9.884;2023-08-31T01:31:16;12.30;99.90
16879;DHT22;8556;52.218;9.884;2023-08-31T01:33:43;12.30;99.90
16879;DHT22;8556;52.218;9.884;2023-08-31T01:36:17;12.30;99.90
16879;DHT22;8556;52.218;9.884;2023-08-31T01:38:50;12.30;99.90
16879;DHT22;8556;52.218;9.884;2023-08-31T01:41:21;12.20;99.90
16879;DHT22;8556;52.218;9.884;2023-08-31T01:43:50;12.20;99.90
16879;DHT22;8556;52.218;9.884;2023-08-31T01:46:18;12.10;99.90
16879;DHT22;8556;52.218;9.884;2023-08-31T01:48:45;12.10;99.90
16879;DHT22;8556;52.218;9.884;2023-08-31T01:51:12;12.20;99.90
16879;DHT22;8556;52.218;9.884;2023-08-31T01:53:39;12.20;99.90
16879;DHT22;8556;52.218;9.884;2023-08-31T01:56:06;12.10;99.90
16879;DHT22;8556;52.218;9.884;2023-08-31T01:58:34;12.10;99.90
16879;DHT22;8556;52.218;9.884;2023-08-31T02:01:01;12.10;99.90
16879;DHT22;8556;52.218;9.884;2023-08-31T02:03:28;12.10;99.90
16879;DHT22;8556;52.218;9.884;2023-08-31T02:05:55;12.20;99.90
16879;DHT22;8556;52.218;9.884;2023-08-31T02:08:23;12.20;99.90
16879;DHT22;8556;52.218;9.884;2023-08-31T02:10:49;12.10;99.90
16879;DHT22;8556;52.218;9.884;2023-08-31T02:13:16;11.90;99.90
16879;DHT22;8556;52.218;9.884;2023-08-31T02:15:44;11.90;99.90
16879;DHT22;8556;52.218;9.884;2023-08-31T02:18:11;12.00;99.90
16879;DHT22;8556;52.218;9.884;2023-08-31T02:20:38;12.00;99.90
16879;DHT22;8556;52.218;9.884;2023-08-31T02:23:05;11.90;99.90
16879;DHT22;8556;52.218;9.884;2023-08-31T02:25:32;12.00;99.90
16879;DHT22;8556;52.218;9.884;2023-08-31T02:27:59;12.00;99.90
16879;DHT22;8556;52.218;9.884;2023-08-31T02:30:26;12.00;99.90
16879;DHT22;8556;52.218;9.884;2023-08-31T02:32:54;12.00;99.90
16879;DHT22;8556;52.218;9.884;2023-08-31T02:35:21;12.10;99.90
16879;DHT22;8556;52.218;9.884;2023-08-31T02:37:47;12.10;99.90
16879;DHT22;8556;52.218;9.884;2023-08-31T02:40:30;12.00;99.90
16879;DHT22;8556;52.218;9.884;2023-08-31T02:43:04;12.00;99.90
16879;DHT22;8556;52.218;9.884;2023-08-31T02:45:31;12.00;99.90
16879;DHT22;8556;52.218;9.884;2023-08-31T02:47:59;12.00;99.90
16879;DHT22;8556;52.218;9.884;2023-08-31T02:50:29;12.00;99.90
16879;DHT22;8556;52.218;9.884;2023-08-31T02:52:55;11.90;99.90
16879;DHT22;8556;52.218;9.884;2023-08-31T02:55:22;11.90;99.90
16879;DHT22;8556;52.218;9.884;2023-08-31T02:57:49;11.90;99.90
16879;DHT22;8556;52.218;9.884;2023-08-31T03:00:16;11.90;99.90
16879;DHT22;8556;52.218;9.884;2023-08-31T03:02:47;11.90;99.90
16879;DHT22;8556;52.218;9.884;2023-08-31T03:05:15;12.00;99.90
16879;DHT22;8556;52.218;9.884;2023-08-31T03:07:42;11.90;99.90
16879;DHT22;8556;52.218;9.884;2023-08-31T03:10:09;12.00;99.90
16879;DHT22;8556;52.218;9.884;2023-08-31T03:12:37;12.00;99.90
16879;DHT22;8556;52.218;9.884;2023-08-31T03:15:06;12.00;99.90
16879;DHT22;8556;52.218;9.884;2023-08-31T03:17:33;12.10;99.90
16879;DHT22;8556;52.218;9.884;2023-08-31T03:20:00;12.00;99.90
16879;DHT22;8556;52.218;9.884;2023-08-31T03:22:28;12.20;99.90
16879;DHT22;8556;52.218;9.884;2023-08-31T03:24:56;12.10;99.90
16879;DHT22;8556;52.218;9.884;2023-08-31T03:27:22;12.00;99.90
16879;DHT22;8556;52.218;9.884;2023-08-31T03:29:49;12.00;99.90
16879;DHT22;8556;52.218;9.884;2023-08-31T03:32:16;12.00;99.90
16879;DHT22;8556;52.218;9.884;2023-08-31T03:34:43;12.10;99.90
16879;DHT22;8556;52.218;9.884;2023-08-31T03:37:10;12.10;99.90
16879;DHT22;8556;52.218;9.884;2023-08-31T03:39:39;12.10;99.90
16879;DHT22;8556;52.218;9.884;2023-08-31T03:42:06;12.10;99.90
16879;DHT22;8556;52.218;9.884;2023-08-31T03:44:34;12.20;99.90
16879;DHT22;8556;52.218;9.884;2023-08-31T03:47:01;12.20;99.90
16879;DHT22;8556;52.218;9.884;2023-08-31T03:49:28;12.20;99.90
16879;DHT22;8556;52.218;9.884;2023-08-31T03:51:55;12.20;99.90
16879;DHT22;8556;52.218;9.884;2023-08-31T03:54:22;12.30;99.90
16879;DHT22;8556;52.218;9.884;2023-08-31T03:56:50;12.20;99.90
16879;DHT22;8556;52.218;9.884;2023-08-31T03:59:17;12.10;99.90
16879;DHT22;8556;52.218;9.884;2023-08-31T04:01:44;12.10;99.90
16879;DHT22;8556;52.218;9.884;2023-08-31T04:04:11;12.10;99.90
16879;DHT22;8556;52.218;9.884;2023-08-31T04:06:38;12.00;99.90
16879;DHT22;8556;52.218;9.884;2023-08-31T04:09:05;12.00;99.90
16879;DHT22;8556;52.218;9.884;2023-08-31T04:11:32;11.90;99.90
16879;DHT22;8556;52.218;9.884;2023-08-31T04:14:00;11.90;99.90
16879;DHT22;8556;52.218;9.884;2023-08-31T04:16:27;11.90;99.90
16879;DHT22;8556;52.218;9.884;2023-08-31T04:18:54;11.90;99.90
16879;DHT22;8556;52.218;9.884;2023-08-31T04:21:21;11.90;99.90
16879;DHT22;8556;52.218;9.884;2023-08-31T04:23:48;12.00;99.90
16879;DHT22;8556;52.218;9.884;2023-08-31T04:26:15;11.90;99.90
16879;DHT22;8556;52.218;9.884;2023-08-31T04:28:43;12.00;99.90
16879;DHT22;8556;52.218;9.884;2023-08-31T04:31:11;12.00;99.90
16879;DHT22;8556;52.218;9.884;2023-08-31T04:33:38;12.00;99.90
16879;DHT22;8556;52.218;9.884;2023-08-31T04:36:05;11.90;99.90
16879;DHT22;8556;52.218;9.884;2023-08-31T04:38:33;11.90;99.90
16879;DHT22;8556;52.218;9.884;2023-08-31T04:41:01;12.10;99.90
16879;DHT22;8556;52.218;9.884;2023-08-31T04:43:27;12.10;99.90
16879;DHT22;8556;52.218;9.884;2023-08-31T04:45:55;12.10;99.90
16879;DHT22;8556;52.218;9.884;2023-08-31T04:48:23;12.00;99.90
16879;DHT22;8556;52.218;9.884;2023-08-31T04:50:50;12.00;99.90
16879;DHT22;8556;52.218;9.884;2023-08-31T04:53:19;11.80;99.90
16879;DHT22;8556;52.218;9.884;2023-08-31T04:55:46;11.80;99.90
16879;DHT22;8556;52.218;9.884;2023-08-31T04:58:13;11.80;99.90
16879;DHT22;8556;52.218;9.884;2023-08-31T05:00:40;11.80;99.90
16879;DHT22;8556;52.218;9.884;2023-08-31T05:03:06;11.70;99.90
16879;DHT22;8556;52.218;9.884;2023-08-31T05:05:35;11.80;99.90
16879;DHT22;8556;52.218;9.884;2023-08-31T05:08:02;11.90;99.90
16879;DHT22;8556;52.218;9.884;2023-08-31T05:10:30;11.90;99.90
16879;DHT22;8556;52.218;9.884;2023-08-31T05:12:57;11.90;99.90
16879;DHT22;8556;52.218;9.884;2023-08-31T05:15:23;12.00;99.90
16879;DHT22;8556;52.218;9.884;2023-08-31T05:17:53;12.00;99.90
16879;DHT22;8556;52.218;9.884;2023-08-31T05:20:20;12.10;99.90
16879;DHT22;8556;52.218;9.884;2023-08-31T05:22:50;12.20;99.90
16879;DHT22;8556;52.218;9.884;2023-08-31T05:25:17;12.20;99.90
16879;DHT22;8556;52.218;9.884;2023-08-31T05:27:44;12.20;99.90
16879;DHT22;8556;52.218;9.884;2023-08-31T05:30:11;12.20;99.90
16879;DHT22;8556;52.218;9.884;2023-08-31T05:32:38;12.20;99.90
16879;DHT22;8556;52.218;9.884;2023-08-31T05:35:05;12.30;99.90
16879;DHT22;8556;52.218;9.884;2023-08-31T05:37:33;12.20;99.90
16879;DHT22;8556;52.218;9.884;2023-08-31T05:40:03;12.30;99.90
16879;DHT22;8556;52.218;9.884;2023-08-31T05:42:35;12.30;99.90
16879;DHT22;8556;52.218;9.884;2023-08-31T05:45:02;12.40;99.90
16879;DHT22;8556;52.218;9.884;2023-08-31T05:47:29;12.40;99.90
16879;DHT22;8556;52.218;9.884;2023-08-31T05:49:57;12.50;99.90
16879;DHT22;8556;52.218;9.884;2023-08-31T05:52:25;12.60;99.90
16879;DHT22;8556;52.218;9.884;2023-08-31T05:54:52;12.60;99.90
16879;DHT22;8556;52.218;9.884;2023-08-31T05:57:23;12.70;99.90
16879;DHT22;8556;52.218;9.884;2023-08-31T05:59:49;12.70;99.90
16879;DHT22;8556;52.218;9.884;2023-08-31T06:02:16;12.70;99.90
16879;DHT22;8556;52.218;9.884;2023-08-31T06:04:43;12.80;99.90
16879;DHT22;8556;52.218;9.884;2023-08-31T06:07:10;12.80;99.90
16879;DHT22;8556;52.218;9.884;2023-08-31T06:09:37;12.90;99.90
16879;DHT22;8556;52.218;9.884;2023-08-31T06:12:04;12.90;99.90
16879;DHT22;8556;52.218;9.884;2023-08-31T06:14:34;12.90;99.90
16879;DHT22;8556;52.218;9.884;2023-08-31T06:17:00;13.00;99.90
16879;DHT22;8556;52.218;9.884;2023-08-31T06:19:28;13.10;99.90
16879;DHT22;8556;52.218;9.884;2023-08-31T06:21:55;13.10;99.90
16879;DHT22;8556;52.218;9.884;2023-08-31T06:24:22;13.20;99.90
16879;DHT22;8556;52.218;9.884;2023-08-31T06:26:48;13.30;99.90
16879;DHT22;8556;52.218;9.884;2023-08-31T06:29:15;13.40;99.90
16879;DHT22;8556;52.218;9.884;2023-08-31T06:31:43;13.50;99.90
16879;DHT22;8556;52.218;9.884;2023-08-31T06:34:10;13.70;99.90
16879;DHT22;8556;52.218;9.884;2023-08-31T06:36:37;13.50;99.90
16879;DHT22;8556;52.218;9.884;2023-08-31T06:39:06;13.60;99.90
16879;DHT22;8556;52.218;9.884;2023-08-31T06:41:33;13.60;99.90
16879;DHT22;8556;52.218;9.884;2023-08-31T06:44:00;13.60;99.90
16879;DHT22;8556;52.218;9.884;2023-08-31T06:46:27;13.50;99.90
16879;DHT22;8556;52.218;9.884;2023-08-31T06:48:56;13.70;99.90
16879;DHT22;8556;52.218;9.884;2023-08-31T06:51:23;13.90;99.90
16879;DHT22;8556;52.218;9.884;2023-08-31T06:53:50;14.10;99.90
16879;DHT22;8556;52.218;9.884;2023-08-31T06:56:17;14.20;99.90
16879;DHT22;8556;52.218;9.884;2023-08-31T06:58:43;14.00;99.90
16879;DHT22;8556;52.218;9.884;2023-08-31T07:01:12;13.90;99.90
16879;DHT22;8556;52.218;9.884;2023-08-31T07:03:40;13.90;99.90
16879;DHT22;8556;52.218;9.884;2023-08-31T07:06:08;13.80;99.90
16879;DHT22;8556;52.218;9.884;2023-08-31T07:08:35;13.80;99.90
16879;DHT22;8556;52.218;9.884;2023-08-31T07:11:02;13.80;99.90
16879;DHT22;8556;52.218;9.884;2023-08-31T07:13:29;13.80;99.90
16879;DHT22;8556;52.218;9.884;2023-08-31T07:15:56;13.80;99.90
16879;DHT22;8556;52.218;9.884;2023-08-31T07:18:23;13.80;99.90
16879;DHT22;8556;52.218;9.884;2023-08-31T07:20:50;13.80;99.90
16879;DHT22;8556;52.218;9.884;2023-08-31T07:23:18;14.00;99.90
16879;DHT22;8556;52.218;9.884;2023-08-31T07:25:45;13.90;99.90
16879;DHT22;8556;52.218;9.884;2023-08-31T07:28:12;13.90;99.90
16879;DHT22;8556;52.218;9.884;2023-08-31T07:30:39;13.90;99.90
16879;DHT22;8556;52.218;9.884;2023-08-31T07:33:06;14.00;99.90
16879;DHT22;8556;52.218;9.884;2023-08-31T07:35:33;14.00;99.90
16879;DHT22;8556;52.218;9.884;2023-08-31T07:38:00;14.00;99.90
16879;DHT22;8556;52.218;9.884;2023-08-31T07:40:28;14.00;99.90
16879;DHT22;8556;52.218;9.884;2023-08-31T07:42:55;14.00;99.90
16879;DHT22;8556;52.218;9.884;2023-08-31T07:45:22;14.20;99.90
16879;DHT22;8556;52.218;9.884;2023-08-31T07:47:49;14.10;99.90
16879;DHT22;8556;52.218;9.884;2023-08-31T07:50:16;14.00;99.90
16879;DHT22;8556;52.218;9.884;2023-08-31T07:52:43;14.00;99.90
16879;DHT22;8556;52.218;9.884;2023-08-31T07:55:10;13.90;99.90
16879;DHT22;8556;52.218;9.884;2023-08-31T07:57:38;13.80;99.90
16879;DHT22;8556;52.218;9.884;2023-08-31T08:00:07;13.90;99.90
16879;DHT22;8556;52.218;9.884;2023-08-31T08:02:34;14.10;99.90
16879;DHT22;8556;52.218;9.884;2023-08-31T08:05:01;14.20;99.90
16879;DHT22;8556;52.218;9.884;2023-08-31T08:07:28;14.30;99.90
16879;DHT22;8556;52.218;9.884;2023-08-31T08:09:55;14.40;99.90
16879;DHT22;8556;52.218;9.884;2023-08-31T08:12:22;14.50;99.90
16879;DHT22;8556;52.218;9.884;2023-08-31T08:14:51;14.70;99.90
16879;DHT22;8556;52.218;9.884;2023-08-31T08:17:18;14.90;99.90
16879;DHT22;8556;52.218;9.884;2023-08-31T08:19:45;15.00;99.90
16879;DHT22;8556;52.218;9.884;2023-08-31T08:22:12;14.80;99.90
16879;DHT22;8556;52.218;9.884;2023-08-31T08:24:39;15.10;99.90
16879;DHT22;8556;52.218;9.884;2023-08-31T08:27:05;15.00;99.90
16879;DHT22;8556;52.218;9.884;2023-08-31T08:29:32;14.90;99.90
16879;DHT22;8556;52.218;9.884;2023-08-31T08:32:00;14.90;99.90
16879;DHT22;8556;52.218;9.884;2023-08-31T08:34:28;15.00;99.90
16879;DHT22;8556;52.218;9.884;2023-08-31T08:36:55;15.00;99.90
16879;DHT22;8556;52.218;9.884;2023-08-31T08:39:22;15.10;99.90
16879;DHT22;8556;52.218;9.884;2023-08-31T08:41:49;15.10;99.90
16879;DHT22;8556;52.218;9.884;2023-08-31T08:44:18;15.20;99.90
16879;DHT22;8556;52.218;9.884;2023-08-31T08:46:47;15.50;99.90
16879;DHT22;8556;52.218;9.884;2023-08-31T08:49:16;15.70;99.90
16879;DHT22;8556;52.218;9.884;2023-08-31T08:51:43;16.00;99.90
16879;DHT22;8556;52.218;9.884;2023-08-31T08:54:12;16.00;99.90
16879;DHT22;8556;52.218;9.884;2023-08-31T08:56:39;15.80;99.90
16879;DHT22;8556;52.218;9.884;2023-08-31T08:59:06;16.10;99.90
16879;DHT22;8556;52.218;9.884;2023-08-31T09:01:34;16.20;99.90
16879;DHT22;8556;52.218;9.884;2023-08-31T09:04:02;16.10;99.90
16879;DHT22;8556;52.218;9.884;2023-08-31T09:06:30;16.10;99.90
16879;DHT22;8556;52.218;9.884;2023-08-31T09:09:00;16.20;99.90
16879;DHT22;8556;52.218;9.884;2023-08-31T09:11:27;16.50;99.90
16879;DHT22;8556;52.218;9.884;2023-08-31T09:13:56;16.50;99.90
16879;DHT22;8556;52.218;9.884;2023-08-31T09:16:24;16.50;99.90
16879;DHT22;8556;52.218;9.884;2023-08-31T09:18:54;16.30;99.90
16879;DHT22;8556;52.218;9.884;2023-08-31T09:21:21;16.20;99.90
16879;DHT22;8556;52.218;9.884;2023-08-31T09:23:57;16.40;99.90
16879;DHT22;8556;52.218;9.884;2023-08-31T09:26:24;16.50;99.90
16879;DHT22;8556;52.218;9.884;2023-08-31T09:28:51;16.90;99.90
16879;DHT22;8556;52.218;9.884;2023-08-31T09:31:18;16.90;99.90
16879;DHT22;8556;52.218;9.884;2023-08-31T09:33:50;17.00;99.90
16879;DHT22;8556;52.218;9.884;2023-08-31T09:36:19;17.30;99.90
16879;DHT22;8556;52.218;9.884;2023-08-31T09:38:47;17.20;99.90
16879;DHT22;8556;52.218;9.884;2023-08-31T09:41:15;16.80;99.90
16879;DHT22;8556;52.218;9.884;2023-08-31T09:43:42;16.90;99.90
16879;DHT22;8556;52.218;9.884;2023-08-31T09:46:09;17.20;99.90
16879;DHT22;8556;52.218;9.884;2023-08-31T09:48:37;17.10;99.90
16879;DHT22;8556;52.218;9.884;2023-08-31T09:51:05;17.60;99.90
16879;DHT22;8556;52.218;9.884;2023-08-31T09:53:36;17.50;99.90
16879;DHT22;8556;52.218;9.884;2023-08-31T09:56:05;17.90;99.90
16879;DHT22;8556;52.218;9.884;2023-08-31T09:58:33;17.90;99.90
16879;DHT22;8556;52.218;9.884;2023-08-31T10:01:01;18.30;99.90
16879;DHT22;8556;52.218;9.884;2023-08-31T10:03:28;18.40;99.90
16879;DHT22;8556;52.218;9.884;2023-08-31T10:05:55;18.30;99.90
16879;DHT22;8556;52.218;9.884;2023-08-31T10:08:22;18.30;99.90
16879;DHT22;8556;52.218;9.884;2023-08-31T10:10:52;17.50;99.90
16879;DHT22;8556;52.218;9.884;2023-08-31T10:13:21;17.80;99.90
16879;DHT22;8556;52.218;9.884;2023-08-31T10:15:50;18.10;99.90
16879;DHT22;8556;52.218;9.884;2023-08-31T10:18:17;17.70;99.90
16879;DHT22;8556;52.218;9.884;2023-08-31T10:20:44;18.10;99.90
16879;DHT22;8556;52.218;9.884;2023-08-31T10:23:12;17.50;99.90
16879;DHT22;8556;52.218;9.884;2023-08-31T10:26:01;17.50;99.90
16879;DHT22;8556;52.218;9.884;2023-08-31T10:28:29;17.40;99.90
16879;DHT22;8556;52.218;9.884;2023-08-31T10:31:04;17.50;99.90
16879;DHT22;8556;52.218;9.884;2023-08-31T10:33:34;17.40;99.90
16879;DHT22;8556;52.218;9.884;2023-08-31T10:36:02;17.20;99.90
16879;DHT22;8556;52.218;9.884;2023-08-31T10:38:30;17.50;99.90
16879;DHT22;8556;52.218;9.884;2023-08-31T10:41:18;17.40;99.90
16879;DHT22;8556;52.218;9.884;2023-08-31T10:43:50;17.50;99.90
16879;DHT22;8556;52.218;9.884;2023-08-31T10:46:29;17.80;99.90
16879;DHT22;8556;52.218;9.884;2023-08-31T10:48:57;18.30;99.90
16879;DHT22;8556;52.218;9.884;2023-08-31T10:51:26;18.60;99.90
16879;DHT22;8556;52.218;9.884;2023-08-31T10:54:08;18.50;99.90
16879;DHT22;8556;52.218;9.884;2023-08-31T10:57:01;18.40;99.90
16879;DHT22;8556;52.218;9.884;2023-08-31T10:59:42;18.60;99.90
16879;DHT22;8556;52.218;9.884;2023-08-31T11:02:10;19.10;99.90
16879;DHT22;8556;52.218;9.884;2023-08-31T11:04:54;19.60;99.90
16879;DHT22;8556;52.218;9.884;2023-08-31T11:07:24;19.20;99.90
16879;DHT22;8556;52.218;9.884;2023-08-31T11:09:52;19.20;99.90
16879;DHT22;8556;52.218;9.884;2023-08-31T11:12:32;18.80;99.90
16879;DHT22;8556;52.218;9.884;2023-08-31T11:14:59;18.60;99.90
16879;DHT22;8556;52.218;9.884;2023-08-31T11:17:28;18.90;99.90
16879;DHT22;8556;52.218;9.884;2023-08-31T11:19:56;18.60;99.90
16879;DHT22;8556;52.218;9.884;2023-08-31T11:22:23;18.10;99.90
16879;DHT22;8556;52.218;9.884;2023-08-31T11:24:50;18.20;99.90
16879;DHT22;8556;52.218;9.884;2023-08-31T11:27:19;18.90;99.90
16879;DHT22;8556;52.218;9.884;2023-08-31T11:29:46;19.20;99.90
16879;DHT22;8556;52.218;9.884;2023-08-31T11:32:13;19.40;99.90
16879;DHT22;8556;52.218;9.884;2023-08-31T11:34:43;19.90;99.90
16879;DHT22;8556;52.218;9.884;2023-08-31T11:37:10;19.70;99.90
16879;DHT22;8556;52.218;9.884;2023-08-31T11:39:37;19.30;99.90
16879;DHT22;8556;52.218;9.884;2023-08-31T11:42:05;20.10;99.90
16879;DHT22;8556;52.218;9.884;2023-08-31T11:44:32;19.80;99.90
16879;DHT22;8556;52.218;9.884;2023-08-31T11:46:59;20.10;99.90
16879;DHT22;8556;52.218;9.884;2023-08-31T11:49:27;20.00;99.90
16879;DHT22;8556;52.218;9.884;2023-08-31T11:51:55;20.10;99.90
16879;DHT22;8556;52.218;9.884;2023-08-31T11:54:25;20.10;99.90
16879;DHT22;8556;52.218;9.884;2023-08-31T11:56:52;20.50;99.90
16879;DHT22;8556;52.218;9.884;2023-08-31T11:59:19;20.20;99.90
16879;DHT22;8556;52.218;9.884;2023-08-31T12:01:47;20.50;99.90
16879;DHT22;8556;52.218;9.884;2023-08-31T12:04:21;20.00;99.90
16879;DHT22;8556;52.218;9.884;2023-08-31T12:06:51;19.20;99.90
16879;DHT22;8556;52.218;9.884;2023-08-31T12:09:21;19.30;99.90
16879;DHT22;8556;52.218;9.884;2023-08-31T12:11:51;19.20;99.90
16879;DHT22;8556;52.218;9.884;2023-08-31T12:14:20;18.60;99.90
16879;DHT22;8556;52.218;9.884;2023-08-31T12:16:48;19.10;99.90
16879;DHT22;8556;52.218;9.884;2023-08-31T12:19:15;19.10;99.90
16879;DHT22;8556;52.218;9.884;2023-08-31T12:21:43;19.30;99.90
16879;DHT22;8556;52.218;9.884;2023-08-31T12:24:10;19.80;99.90
16879;DHT22;8556;52.218;9.884;2023-08-31T12:26:40;20.10;99.90
16879;DHT22;8556;52.218;9.884;2023-08-31T12:29:07;20.30;99.90
16879;DHT22;8556;52.218;9.884;2023-08-31T12:31:33;20.30;99.90
16879;DHT22;8556;52.218;9.884;2023-08-31T12:34:00;20.10;99.90
16879;DHT22;8556;52.218;9.884;2023-08-31T12:36:31;19.80;99.90
16879;DHT22;8556;52.218;9.884;2023-08-31T12:38:58;19.60;99.90
16879;DHT22;8556;52.218;9.884;2023-08-31T12:41:27;19.70;99.90
16879;DHT22;8556;52.218;9.884;2023-08-31T12:43:55;19.90;99.90
16879;DHT22;8556;52.218;9.884;2023-08-31T12:46:23;20.20;99.90
16879;DHT22;8556;52.218;9.884;2023-08-31T12:48:49;20.20;99.90
16879;DHT22;8556;52.218;9.884;2023-08-31T12:51:18;20.10;99.90
16879;DHT22;8556;52.218;9.884;2023-08-31T12:53:45;20.50;99.90
16879;DHT22;8556;52.218;9.884;2023-08-31T12:56:12;20.00;99.90
16879;DHT22;8556;52.218;9.884;2023-08-31T12:58:39;20.10;99.90
16879;DHT22;8556;52.218;9.884;2023-08-31T13:01:07;19.60;99.90
16879;DHT22;8556;52.218;9.884;2023-08-31T13:03:34;19.60;99.90
16879;DHT22;8556;52.218;9.884;2023-08-31T13:06:00;19.60;99.90
16879;DHT22;8556;52.218;9.884;2023-08-31T13:08:27;20.20;99.90
16879;DHT22;8556;52.218;9.884;2023-08-31T13:10:54;20.10;99.90
16879;DHT22;8556;52.218;9.884;2023-08-31T13:13:22;20.20;99.90
16879;DHT22;8556;52.218;9.884;2023-08-31T13:15:48;20.20;99.90
16879;DHT22;8556;52.218;9.884;2023-08-31T13:18:17;20.60;99.90
16879;DHT22;8556;52.218;9.884;2023-08-31T13:20:49;20.60;99.90
16879;DHT22;8556;52.218;9.884;2023-08-31T13:23:16;20.70;99.90
16879;DHT22;8556;52.218;9.884;2023-08-31T13:25:43;20.40;99.90
16879;DHT22;8556;52.218;9.884;2023-08-31T13:28:10;20.00;99.90
16879;DHT22;8556;52.218;9.884;2023-08-31T13:30:37;19.70;99.90
16879;DHT22;8556;52.218;9.884;2023-08-31T13:33:04;19.00;99.90
16879;DHT22;8556;52.218;9.884;2023-08-31T13:35:32;18.80;99.90
16879;DHT22;8556;52.218;9.884;2023-08-31T13:37:59;18.60;99.90
16879;DHT22;8556;52.218;9.884;2023-08-31T13:40:26;18.10;99.90
16879;DHT22;8556;52.218;9.884;2023-08-31T13:42:54;17.80;99.90
16879;DHT22;8556;52.218;9.884;2023-08-31T13:45:22;17.60;99.90
16879;DHT22;8556;52.218;9.884;2023-08-31T13:47:49;17.40;99.90
16879;DHT22;8556;52.218;9.884;2023-08-31T13:50:16;17.20;99.90
16879;DHT22;8556;52.218;9.884;2023-08-31T13:52:44;16.80;99.90
16879;DHT22;8556;52.218;9.884;2023-08-31T13:55:11;16.70;99.90
16879;DHT22;8556;52.218;9.884;2023-08-31T13:57:40;16.60;99.90
16879;DHT22;8556;52.218;9.884;2023-08-31T14:00:09;16.60;99.90
16879;DHT22;8556;52.218;9.884;2023-08-31T14:02:36;16.50;99.90
16879;DHT22;8556;52.218;9.884;2023-08-31T14:05:04;16.70;99.90
16879;DHT22;8556;52.218;9.884;2023-08-31T14:07:32;16.70;99.90
16879;DHT22;8556;52.218;9.884;2023-08-31T14:10:00;16.70;99.90
16879;DHT22;8556;52.218;9.884;2023-08-31T14:12:27;16.70;99.90
16879;DHT22;8556;52.218;9.884;2023-08-31T14:14:54;16.70;99.90
16879;DHT22;8556;52.218;9.884;2023-08-31T14:17:20;16.70;99.90
16879;DHT22;8556;52.218;9.884;2023-08-31T14:19:48;16.80;99.90
16879;DHT22;8556;52.218;9.884;2023-08-31T14:22:14;17.20;99.90
16879;DHT22;8556;52.218;9.884;2023-08-31T14:24:42;17.40;99.90
16879;DHT22;8556;52.218;9.884;2023-08-31T14:27:10;17.80;99.90
16879;DHT22;8556;52.218;9.884;2023-08-31T14:29:37;18.10;99.90
16879;DHT22;8556;52.218;9.884;2023-08-31T14:32:04;18.00;99.90
16879;DHT22;8556;52.218;9.884;2023-08-31T14:34:31;17.80;99.90
16879;DHT22;8556;52.218;9.884;2023-08-31T14:36:58;17.70;99.90
16879;DHT22;8556;52.218;9.884;2023-08-31T14:39:26;17.70;99.90
16879;DHT22;8556;52.218;9.884;2023-08-31T14:41:55;17.80;99.90
16879;DHT22;8556;52.218;9.884;2023-08-31T14:44:24;17.90;99.90
16879;DHT22;8556;52.218;9.884;2023-08-31T14:46:52;17.80;99.90
16879;DHT22;8556;52.218;9.884;2023-08-31T14:49:21;17.80;99.90
16879;DHT22;8556;52.218;9.884;2023-08-31T14:51:50;17.70;99.90
16879;DHT22;8556;52.218;9.884;2023-08-31T14:54:18;17.90;99.90
16879;DHT22;8556;52.218;9.884;2023-08-31T14:56:45;17.90;99.90
16879;DHT22;8556;52.218;9.884;2023-08-31T14:59:12;17.60;99.90
16879;DHT22;8556;52.218;9.884;2023-08-31T15:01:40;17.50;99.90
16879;DHT22;8556;52.218;9.884;2023-08-31T15:04:07;17.50;99.90
16879;DHT22;8556;52.218;9.884;2023-08-31T15:06:33;17.50;99.90
16879;DHT22;8556;52.218;9.884;2023-08-31T15:09:00;17.40;99.90
16879;DHT22;8556;52.218;9.884;2023-08-31T15:11:27;17.20;99.90
16879;DHT22;8556;52.218;9.884;2023-08-31T15:13:54;17.30;99.90
16879;DHT22;8556;52.218;9.884;2023-08-31T15:16:21;17.30;99.90
16879;DHT22;8556;52.218;9.884;2023-08-31T15:18:50;17.20;99.90
16879;DHT22;8556;52.218;9.884;2023-08-31T15:21:18;17.00;99.90
16879;DHT22;8556;52.218;9.884;2023-08-31T15:23:45;17.00;99.90
16879;DHT22;8556;52.218;9.884;2023-08-31T15:26:12;17.00;99.90
16879;DHT22;8556;52.218;9.884;2023-08-31T15:28:40;16.80;99.90
16879;DHT22;8556;52.218;9.884;2023-08-31T15:31:11;16.90;99.90
16879;DHT22;8556;52.218;9.884;2023-08-31T15:33:38;16.80;99.90
16879;DHT22;8556;52.218;9.884;2023-08-31T15:36:07;16.80;99.90
16879;DHT22;8556;52.218;9.884;2023-08-31T15:38:35;16.70;99.90
16879;DHT22;8556;52.218;9.884;2023-08-31T15:41:04;16.60;99.90
16879;DHT22;8556;52.218;9.884;2023-08-31T15:43:32;16.60;99.90
16879;DHT22;8556;52.218;9.884;2023-08-31T15:45:59;16.60;99.90
16879;DHT22;8556;52.218;9.884;2023-08-31T15:48:27;16.60;99.90
16879;DHT22;8556;52.218;9.884;2023-08-31T15:50:55;16.70;99.90